createdAt,value
2023-01-27T00:01:30.472Z,25.40
2023-01-27T00:04:00.231Z,25.37
2023-01-27T00:06:29.640Z,25.35
2023-01-27T00:08:59.191Z,25.34
2023-01-27T00:11:50.652Z,25.31
2023-01-27T00:14:20.550Z,25.30
2023-01-27T00:17:03.123Z,25.26
2023-01-27T00:19:32.668Z,25.23
2023-01-27T00:22:19.460Z,25.22
2023-01-27T00:24:53.269Z,25.19
2023-01-27T00:27:23.345Z,25.16
2023-01-27T00:29:53.899Z,25.14
2023-01-27T00:32:40.788Z,25.12
2023-01-27T00:35:10.804Z,25.10
2023-01-27T00:37:40.177Z,25.08
2023-01-27T00:40:10.523Z,25.06
2023-01-27T00:42:39.968Z,25.04
2023-01-27T00:45:26.724Z,25.02
2023-01-27T00:48:00.177Z,24.99
2023-01-27T00:50:30.942Z,24.96
2023-01-27T00:53:03.248Z,24.95
2023-01-27T00:55:32.581Z,24.92
2023-01-27T00:58:09.202Z,24.91
2023-01-27T01:00:37.829Z,24.87
2023-01-27T01:03:19.187Z,24.89
2023-01-27T01:05:45.467Z,24.92
2023-01-27T01:08:14.784Z,24.95
2023-01-27T01:10:44.043Z,24.99
2023-01-27T01:13:13.223Z,25.02
2023-01-27T01:15:42.571Z,25.04
2023-01-27T01:18:12.342Z,25.06
2023-01-27T01:20:45.292Z,25.10
2023-01-27T01:23:14.566Z,25.11
2023-01-27T01:25:54.334Z,25.14
2023-01-27T01:28:34.340Z,25.17
2023-01-27T01:31:21.308Z,25.19
2023-01-27T01:33:46.059Z,25.22
2023-01-27T01:36:16.010Z,25.25
2023-01-27T01:38:45.850Z,25.27
2023-01-27T01:41:19.243Z,25.29
2023-01-27T01:43:51.417Z,25.32
2023-01-27T01:46:22.248Z,25.34
2023-01-27T01:48:52.906Z,25.34
2023-01-27T01:51:26.342Z,25.31
2023-01-27T01:54:00.666Z,25.26
2023-01-27T01:56:31.248Z,25.23
2023-01-27T01:59:08.302Z,25.20
2023-01-27T02:01:41.139Z,25.17
2023-01-27T02:04:11.652Z,25.15
2023-01-27T02:06:42.114Z,25.13
2023-01-27T02:09:12.872Z,25.10
2023-01-27T02:11:43.564Z,25.07
2023-01-27T02:14:14.191Z,25.05
2023-01-27T02:16:45.158Z,25.02
2023-01-27T02:19:15.937Z,24.99
2023-01-27T02:21:45.666Z,24.99
2023-01-27T02:24:15.050Z,24.97
2023-01-27T02:26:47.208Z,24.94
2023-01-27T02:29:18.934Z,24.91
2023-01-27T02:31:49.577Z,24.89
2023-01-27T02:34:20.967Z,24.88
2023-01-27T02:37:06.617Z,24.86
2023-01-27T02:39:38.134Z,24.83
2023-01-27T02:42:09.146Z,24.82
2023-01-27T02:44:44.739Z,24.79
2023-01-27T02:47:13.874Z,24.77
2023-01-27T02:49:43.020Z,24.73
2023-01-27T02:52:13.467Z,24.72
2023-01-27T02:54:42.612Z,24.71
2023-01-27T02:57:11.950Z,24.74
2023-01-27T02:59:41.144Z,24.77
2023-01-27T03:02:13.099Z,24.81
2023-01-27T03:04:43.109Z,24.83
2023-01-27T03:07:12.356Z,24.86
2023-01-27T03:09:42.025Z,24.88
2023-01-27T03:12:28.385Z,24.90
2023-01-27T03:15:16.292Z,24.93
2023-01-27T03:18:03.453Z,24.95
2023-01-27T03:20:34.831Z,24.96
2023-01-27T03:23:05.054Z,25.01
2023-01-27T03:25:34.672Z,25.04
2023-01-27T03:28:04.917Z,25.06
2023-01-27T03:30:36.440Z,25.08
2023-01-27T03:33:07.415Z,25.10
2023-01-27T03:35:38.446Z,25.13
2023-01-27T03:38:26.679Z,25.15
2023-01-27T03:41:14.057Z,25.18
2023-01-27T03:44:01.800Z,25.22
2023-01-27T03:46:31.425Z,25.25
2023-01-27T03:49:01.403Z,25.28
2023-01-27T03:51:30.730Z,25.31
2023-01-27T03:54:01.369Z,25.33
2023-01-27T03:56:30.695Z,25.36
2023-01-27T03:59:00.308Z,25.38
2023-01-27T04:01:30.745Z,25.40
2023-01-27T04:04:17.910Z,25.43
2023-01-27T04:07:03.826Z,25.42
2023-01-27T04:09:34.929Z,25.38
2023-01-27T04:12:05.405Z,25.34
2023-01-27T04:14:40.023Z,25.29
2023-01-27T04:17:13.562Z,25.26
2023-01-27T04:19:43.049Z,25.24
2023-01-27T04:22:12.898Z,25.20
2023-01-27T04:24:42.387Z,25.17
2023-01-27T04:27:12.578Z,25.15
2023-01-27T04:29:42.235Z,25.13
2023-01-27T04:34:51.857Z,25.07
2023-01-27T04:37:21.356Z,25.05
2023-01-27T04:39:51.382Z,25.01
2023-01-27T04:42:20.951Z,24.99
2023-01-27T04:44:53.314Z,24.97
2023-01-27T04:47:22.316Z,24.95
2023-01-27T04:49:51.966Z,24.94
2023-01-27T04:52:21.576Z,24.91
2023-01-27T04:54:51.325Z,24.90
2023-01-27T04:57:21.345Z,24.87
2023-01-27T04:59:51.490Z,24.83
2023-01-27T05:02:21.219Z,24.80
2023-01-27T05:04:51.189Z,24.79
2023-01-27T05:07:21.258Z,24.76
2023-01-27T05:09:51.550Z,24.72
2023-01-27T05:15:10.898Z,24.71
2023-01-27T05:17:40.891Z,24.69
2023-01-27T05:20:10.958Z,24.65
2023-01-27T05:22:40.407Z,24.63
2023-01-27T05:25:10.192Z,24.61
2023-01-27T05:27:39.998Z,24.58
2023-01-27T05:30:09.916Z,24.55
2023-01-27T05:32:39.533Z,24.52
2023-01-27T05:35:09.453Z,24.48
2023-01-27T05:37:39.060Z,24.47
2023-01-27T05:40:09.019Z,24.44
2023-01-27T05:42:38.750Z,24.40
2023-01-27T05:45:08.770Z,24.38
2023-01-27T05:47:38.514Z,24.37
2023-01-27T05:50:08.566Z,24.31
2023-01-27T05:52:38.614Z,24.29
2023-01-27T05:55:08.539Z,24.28
2023-01-27T05:57:38.209Z,24.25
2023-01-27T06:05:35.991Z,24.16
2023-01-27T06:08:05.601Z,24.12
2023-01-27T06:10:39.850Z,24.09
2023-01-27T06:13:09.184Z,24.06
2023-01-27T06:15:38.936Z,24.03
2023-01-27T06:18:08.369Z,24.01
2023-01-27T06:20:37.882Z,23.98
2023-01-27T06:23:07.629Z,23.96
2023-01-27T06:26:00.410Z,23.92
2023-01-27T06:28:30.242Z,23.90
2023-01-27T06:31:01.603Z,23.86
2023-01-27T06:33:31.113Z,23.84
2023-01-27T06:36:05.313Z,23.81
2023-01-27T06:38:34.827Z,23.78
2023-01-27T06:41:04.430Z,23.76
2023-01-27T06:43:33.956Z,23.73
2023-01-27T06:46:05.739Z,23.70
2023-01-27T06:48:34.259Z,23.68
2023-01-27T06:51:03.719Z,23.65
2023-01-27T06:53:33.526Z,23.63
2023-01-27T06:56:03.225Z,23.60
2023-01-27T06:58:52.831Z,23.57
2023-01-27T07:01:23.051Z,23.56
2023-01-27T07:03:52.741Z,23.53
2023-01-27T07:06:22.136Z,23.49
2023-01-27T07:08:53.627Z,23.47
2023-01-27T07:11:43.313Z,23.41
2023-01-27T07:14:12.999Z,23.41
2023-01-27T07:16:42.428Z,23.37
2023-01-27T07:19:11.841Z,23.35
2023-01-27T07:24:30.494Z,23.31
2023-01-27T07:27:00.016Z,23.26
2023-01-27T07:29:29.807Z,23.25
2023-01-27T07:31:59.693Z,23.23
2023-01-27T07:34:29.336Z,23.20
2023-01-27T07:36:58.879Z,23.17
2023-01-27T07:39:28.588Z,23.13
2023-01-27T07:41:59.391Z,23.11
2023-01-27T07:47:18.549Z,23.07
2023-01-27T07:49:48.076Z,22.98
2023-01-27T07:52:19.133Z,22.98
2023-01-27T07:54:49.031Z,22.93
2023-01-27T07:57:19.062Z,22.95
2023-01-27T07:59:49.193Z,22.91
2023-01-27T08:02:19.153Z,22.89
2023-01-27T08:04:53.434Z,22.84
2023-01-27T08:07:21.700Z,22.82
2023-01-27T08:09:51.615Z,22.78
2023-01-27T08:12:21.843Z,22.75
2023-01-27T08:14:51.711Z,22.76
2023-01-27T08:17:21.799Z,22.80
2023-01-27T08:19:53.125Z,22.81
2023-01-27T08:22:25.720Z,22.84
2023-01-27T08:24:55.250Z,22.88
2023-01-27T08:27:45.036Z,22.90
2023-01-27T08:30:15.120Z,22.92
2023-01-27T08:32:45.156Z,22.95
2023-01-27T08:35:14.720Z,22.97
2023-01-27T08:37:44.105Z,23.00
2023-01-27T08:40:14.221Z,23.04
2023-01-27T08:42:43.888Z,23.07
2023-01-27T08:45:13.666Z,23.10
2023-01-27T08:50:18.351Z,23.17
2023-01-27T08:52:50.953Z,23.19
2023-01-27T08:55:20.979Z,23.20
2023-01-27T08:57:51.079Z,23.20
2023-01-27T09:00:20.690Z,23.26
2023-01-27T09:02:51.779Z,23.30
2023-01-27T09:05:21.338Z,23.29
2023-01-27T09:07:51.486Z,23.27
2023-01-27T09:10:21.268Z,23.23
2023-01-27T09:15:40.007Z,23.19
2023-01-27T09:18:09.485Z,23.17
2023-01-27T09:20:39.439Z,23.16
2023-01-27T09:23:09.140Z,23.16
2023-01-27T09:25:38.748Z,23.15
2023-01-27T09:28:09.490Z,23.14
2023-01-27T09:30:41.003Z,23.13
2023-01-27T09:33:10.816Z,23.10
2023-01-27T09:35:41.652Z,23.08
2023-01-27T09:38:11.216Z,23.06
2023-01-27T09:40:42.018Z,23.06
2023-01-27T09:43:28.593Z,23.04
2023-01-27T09:46:05.712Z,23.01
2023-01-27T09:48:53.503Z,22.98
2023-01-27T09:51:24.053Z,22.97
2023-01-27T09:53:57.814Z,22.95
2023-01-27T09:56:34.772Z,22.93
2023-01-27T09:59:18.054Z,22.91
2023-01-27T10:02:13.752Z,22.88
2023-01-27T10:04:47.698Z,22.86
2023-01-27T10:07:21.677Z,22.83
2023-01-27T10:10:07.693Z,22.81
2023-01-27T10:12:44.457Z,22.77
2023-01-27T10:15:33.263Z,22.75
2023-01-27T10:18:11.394Z,22.73
2023-01-27T10:20:48.535Z,22.70
2023-01-27T10:23:22.913Z,22.68
2023-01-27T10:25:57.012Z,22.65
2023-01-27T10:28:26.757Z,22.64
2023-01-27T10:31:03.082Z,22.62
2023-01-27T10:33:50.788Z,22.60
2023-01-27T10:36:25.552Z,22.57
2023-01-27T10:38:56.535Z,22.54
2023-01-27T10:41:42.477Z,22.53
2023-01-27T10:44:13.147Z,22.51
2023-01-27T10:46:46.908Z,22.49
2023-01-27T10:49:20.279Z,22.47
2023-01-27T10:51:51.826Z,22.44
2023-01-27T10:54:22.760Z,22.43
2023-01-27T10:56:53.904Z,22.41
2023-01-27T10:59:32.138Z,22.39
2023-01-27T11:02:09.373Z,22.39
2023-01-27T11:04:40.229Z,22.35
2023-01-27T11:07:09.638Z,22.34
2023-01-27T11:09:39.214Z,22.33
2023-01-27T11:12:14.874Z,22.31
2023-01-27T11:14:45.616Z,22.28
2023-01-27T11:17:19.912Z,22.26
2023-01-27T11:22:57.533Z,22.24
2023-01-27T11:25:28.305Z,22.20
2023-01-27T11:27:59.208Z,22.18
2023-01-27T11:30:36.695Z,22.16
2023-01-27T11:33:14.953Z,22.13
2023-01-27T11:35:44.637Z,22.12
2023-01-27T11:38:18.211Z,22.11
2023-01-27T11:40:47.819Z,22.08
2023-01-27T11:43:18.550Z,22.06
2023-01-27T11:45:49.093Z,22.09
2023-01-27T11:48:20.634Z,22.11
2023-01-27T11:50:50.571Z,22.14
2023-01-27T11:53:25.083Z,22.17
2023-01-27T11:55:55.949Z,22.24
2023-01-27T11:58:26.801Z,22.31
2023-01-27T12:00:59.813Z,22.38
2023-01-27T12:03:30.229Z,22.45
2023-01-27T12:06:00.847Z,22.51
2023-01-27T12:08:46.062Z,22.58
2023-01-27T12:11:19.187Z,22.66
2023-01-27T12:13:52.176Z,22.73
2023-01-27T12:16:22.901Z,22.81
2023-01-27T12:18:56.414Z,22.89
2023-01-27T12:21:27.447Z,22.96
2023-01-27T12:23:57.597Z,23.06
2023-01-27T12:26:34.670Z,23.15
2023-01-27T12:29:05.601Z,23.22
2023-01-27T12:31:35.255Z,23.30
2023-01-27T12:34:05.869Z,23.38
2023-01-27T12:36:41.938Z,23.46
2023-01-27T12:39:14.583Z,23.54
2023-01-27T12:41:44.459Z,23.59
2023-01-27T12:44:20.455Z,23.64
2023-01-27T12:47:03.111Z,23.68
2023-01-27T12:49:43.574Z,23.72
2023-01-27T12:52:14.464Z,23.76
2023-01-27T12:54:43.922Z,23.82
2023-01-27T12:57:19.116Z,23.87
2023-01-27T12:59:52.676Z,23.94
2023-01-27T13:02:23.560Z,24.01
2023-01-27T13:04:54.405Z,24.05
2023-01-27T13:07:28.351Z,24.11
2023-01-27T13:09:59.606Z,24.16
2023-01-27T13:12:30.129Z,24.19
2023-01-27T13:14:59.873Z,24.22
2023-01-27T13:17:38.938Z,24.24
2023-01-27T13:20:22.313Z,24.30
2023-01-27T13:22:53.856Z,24.37
2023-01-27T13:25:23.928Z,24.45
2023-01-27T13:27:53.666Z,24.50
2023-01-27T13:30:42.737Z,24.54
2023-01-27T13:33:30.523Z,24.59
2023-01-27T13:36:01.683Z,24.62
2023-01-27T13:38:32.646Z,24.65
2023-01-27T13:41:02.147Z,24.67
2023-01-27T13:43:36.141Z,24.70
2023-01-27T13:46:07.256Z,24.75
2023-01-27T13:48:53.030Z,24.81
2023-01-27T13:51:26.071Z,24.85
2023-01-27T13:53:56.798Z,24.89
2023-01-27T13:56:30.865Z,24.93
2023-01-27T13:59:14.130Z,24.94
2023-01-27T14:01:54.047Z,24.96
2023-01-27T14:04:41.446Z,24.99
2023-01-27T14:07:29.199Z,25.05
2023-01-27T14:10:12.092Z,25.09
2023-01-27T14:12:49.584Z,25.11
2023-01-27T14:15:35.464Z,25.16
2023-01-27T14:18:11.708Z,25.15
2023-01-27T14:20:45.324Z,25.19
2023-01-27T14:23:19.530Z,25.25
2023-01-27T14:25:50.878Z,25.28
2023-01-27T14:28:22.324Z,25.29
2023-01-27T14:31:05.307Z,25.33
2023-01-27T14:33:39.385Z,25.35
2023-01-27T14:36:12.939Z,25.37
2023-01-27T14:39:01.953Z,25.41
2023-01-27T14:41:47.927Z,25.43
2023-01-27T14:44:19.042Z,25.46
2023-01-27T14:47:05.248Z,25.48
2023-01-27T14:49:36.246Z,25.48
2023-01-27T14:52:07.228Z,25.53
2023-01-27T14:54:44.063Z,25.56
2023-01-27T14:57:18.194Z,25.57
2023-01-27T14:59:49.045Z,25.59
2023-01-27T15:05:19.663Z,25.64
2023-01-27T15:07:58.073Z,25.68
2023-01-27T15:10:31.741Z,25.70
2023-01-27T15:13:19.632Z,25.72
2023-01-27T15:16:02.650Z,25.75
2023-01-27T15:18:36.737Z,25.77
2023-01-27T15:21:10.355Z,25.79
2023-01-27T15:23:53.502Z,25.81
2023-01-27T15:26:24.118Z,25.82
2023-01-27T15:28:53.822Z,25.76
2023-01-27T15:31:43.775Z,25.72
2023-01-27T15:34:20.668Z,25.69
2023-01-27T15:37:02.225Z,25.63
2023-01-27T15:39:40.891Z,25.58
2023-01-27T15:42:07.115Z,25.57
2023-01-27T15:44:37.753Z,25.53
2023-01-27T15:47:23.565Z,25.50
2023-01-27T15:49:54.352Z,25.47
2023-01-27T15:52:25.245Z,25.43
2023-01-27T15:54:55.059Z,25.40
2023-01-27T15:57:31.201Z,25.37
2023-01-27T16:00:01.961Z,25.35
2023-01-27T16:02:32.085Z,25.32
2023-01-27T16:05:12.560Z,25.30
2023-01-27T16:07:41.859Z,25.28
2023-01-27T16:10:13.067Z,25.27
2023-01-27T16:12:44.298Z,25.24
2023-01-27T16:15:28.023Z,25.23
2023-01-27T16:18:20.378Z,25.20
2023-01-27T16:21:04.536Z,25.15
2023-01-27T16:23:39.065Z,25.13
2023-01-27T16:26:19.332Z,25.11
2023-01-27T16:28:49.535Z,25.08
2023-01-27T16:31:19.741Z,25.05
2023-01-27T16:33:50.207Z,25.03
2023-01-27T16:36:28.372Z,25.02
2023-01-27T16:39:01.497Z,24.99
2023-01-27T16:41:38.905Z,24.97
2023-01-27T16:44:10.326Z,24.95
2023-01-27T16:46:47.285Z,24.92
2023-01-27T16:49:28.056Z,24.90
2023-01-27T16:51:59.301Z,24.87
2023-01-27T16:54:30.338Z,24.86
2023-01-27T16:56:59.930Z,24.88
2023-01-27T16:59:29.893Z,24.90
2023-01-27T17:02:00.943Z,24.93
2023-01-27T17:04:30.816Z,24.95
2023-01-27T17:07:07.811Z,24.97
2023-01-27T17:09:45.017Z,24.99
2023-01-27T17:12:32.727Z,25.03
2023-01-27T17:15:03.258Z,25.06
2023-01-27T17:17:33.978Z,25.07
2023-01-27T17:20:04.716Z,25.10
2023-01-27T17:22:35.707Z,25.14
2023-01-27T17:25:06.008Z,25.17
2023-01-27T17:27:36.251Z,25.20
2023-01-27T17:30:15.385Z,25.22
2023-01-27T17:32:44.786Z,25.22
2023-01-27T17:35:24.207Z,25.18
2023-01-27T17:37:53.553Z,25.15
2023-01-27T17:40:23.580Z,25.12
2023-01-27T17:42:53.278Z,25.08
2023-01-27T17:45:24.465Z,25.06
2023-01-27T17:47:54.000Z,25.03
2023-01-27T17:50:24.472Z,25.01
2023-01-27T17:52:54.825Z,24.99
2023-01-27T17:55:24.417Z,24.98
2023-01-27T17:57:55.412Z,24.95
2023-01-27T18:00:26.871Z,24.94
2023-01-27T18:03:01.055Z,24.91
2023-01-27T18:05:34.852Z,24.89
2023-01-27T18:08:05.561Z,24.87
2023-01-27T18:10:38.691Z,24.86
2023-01-27T18:13:14.894Z,24.85
2023-01-27T18:15:45.325Z,24.83
2023-01-27T18:18:19.259Z,24.82
2023-01-27T18:20:49.949Z,24.80
2023-01-27T18:23:22.490Z,24.78
2023-01-27T18:25:54.085Z,24.77
2023-01-27T18:28:23.750Z,24.76
2023-01-27T18:30:53.563Z,24.80
2023-01-27T18:33:23.442Z,24.83
2023-01-27T18:35:59.712Z,24.82
2023-01-27T18:38:29.624Z,24.78
2023-01-27T18:41:00.456Z,24.75
2023-01-27T18:43:30.496Z,24.73
2023-01-27T18:46:00.052Z,24.70
2023-01-27T18:48:29.623Z,24.69
2023-01-27T18:50:59.212Z,24.68
2023-01-27T18:53:28.584Z,24.67
2023-01-27T18:55:59.265Z,24.64
2023-01-27T18:58:33.878Z,24.64
2023-01-27T19:01:03.234Z,24.62
2023-01-27T19:03:33.971Z,24.61
2023-01-27T19:06:03.599Z,24.59
2023-01-27T19:11:22.743Z,24.57
2023-01-27T19:13:52.278Z,24.54
2023-01-27T19:16:22.478Z,24.52
2023-01-27T19:18:52.702Z,24.52
2023-01-27T19:21:22.590Z,24.51
2023-01-27T19:23:52.678Z,24.46
2023-01-27T19:26:23.347Z,24.46
2023-01-27T19:28:54.708Z,24.47
2023-01-27T19:31:24.091Z,24.50
2023-01-27T19:33:56.740Z,24.55
2023-01-27T19:36:29.984Z,24.58
2023-01-27T19:39:18.727Z,24.61
2023-01-27T19:41:48.447Z,24.64
2023-01-27T19:44:17.674Z,24.67
2023-01-27T19:46:47.153Z,24.70
2023-01-27T19:49:20.046Z,24.73
2023-01-27T19:51:50.163Z,24.76
2023-01-27T19:54:19.583Z,24.80
2023-01-27T19:56:49.425Z,24.85
2023-01-27T19:59:19.042Z,24.87
2023-01-27T20:01:48.562Z,24.92
2023-01-27T20:04:18.326Z,24.94
2023-01-27T20:06:47.867Z,24.97
2023-01-27T20:09:17.567Z,25.02
2023-01-27T20:11:47.377Z,25.04
2023-01-27T20:14:17.292Z,25.03
2023-01-27T20:19:36.229Z,24.99
2023-01-27T20:22:05.727Z,24.98
2023-01-27T20:24:34.999Z,24.96
2023-01-27T20:27:04.594Z,24.95
2023-01-27T20:29:35.501Z,24.94
2023-01-27T20:32:05.901Z,24.94
2023-01-27T20:34:35.581Z,24.92
2023-01-27T20:37:05.085Z,24.91
2023-01-27T20:39:36.047Z,24.91
2023-01-27T20:42:05.703Z,24.90
2023-01-27T20:44:35.149Z,24.89
2023-01-27T20:49:53.699Z,24.87
2023-01-27T20:52:24.998Z,24.86
2023-01-27T20:54:54.768Z,24.85
2023-01-27T20:57:25.707Z,24.86
2023-01-27T20:59:55.323Z,24.85
2023-01-27T21:02:24.910Z,24.84
2023-01-27T21:04:54.442Z,24.83
2023-01-27T21:07:24.205Z,24.84
2023-01-27T21:09:54.387Z,24.83
2023-01-27T21:12:24.003Z,24.81
2023-01-27T21:14:53.778Z,24.82
2023-01-27T21:17:26.089Z,24.81
2023-01-27T21:19:55.618Z,24.80
2023-01-27T21:22:25.332Z,24.80
2023-01-27T21:25:15.337Z,24.80
2023-01-27T21:27:45.954Z,24.79
2023-01-27T21:30:15.602Z,24.78
2023-01-27T21:32:44.944Z,24.77
2023-01-27T21:35:14.841Z,24.77
2023-01-27T21:37:44.699Z,24.75
2023-01-27T21:40:14.397Z,24.75
2023-01-27T21:43:01.329Z,24.76
2023-01-27T21:45:31.115Z,24.76
2023-01-27T21:48:00.726Z,24.75
2023-01-27T21:50:30.191Z,24.74
2023-01-27T21:52:59.661Z,24.74
2023-01-27T21:55:29.350Z,24.73
2023-01-27T21:57:58.678Z,24.73
2023-01-27T22:00:30.200Z,24.73
2023-01-27T22:03:00.866Z,24.72
2023-01-27T22:05:30.496Z,24.72
2023-01-27T22:08:00.102Z,24.72
2023-01-27T22:10:30.113Z,24.72
2023-01-27T22:13:00.661Z,24.72
2023-01-27T22:15:32.818Z,24.72
2023-01-27T22:18:02.170Z,24.72
2023-01-27T22:20:31.814Z,24.72
2023-01-27T22:23:01.359Z,24.72
2023-01-27T22:25:30.847Z,24.71
2023-01-27T22:28:00.003Z,24.71
2023-01-27T22:30:29.596Z,24.72
2023-01-27T22:32:59.166Z,24.70
2023-01-27T22:35:29.022Z,24.71
2023-01-27T22:37:58.578Z,24.72
2023-01-27T22:40:28.329Z,24.71
2023-01-27T22:42:57.887Z,24.71
2023-01-27T22:45:27.393Z,24.71
2023-01-27T22:47:58.286Z,24.71
2023-01-27T22:50:27.628Z,24.71
2023-01-27T22:52:58.019Z,24.71
2023-01-27T22:55:27.527Z,24.72
2023-01-27T22:57:57.112Z,24.72
2023-01-27T23:00:26.380Z,24.72
2023-01-27T23:02:57.075Z,24.72
2023-01-27T23:05:26.315Z,24.72
2023-01-27T23:07:56.097Z,24.73
2023-01-27T23:10:25.500Z,24.72
2023-01-27T23:12:55.121Z,24.72
2023-01-27T23:15:26.979Z,24.71
2023-01-27T23:17:57.947Z,24.72
2023-01-27T23:20:27.361Z,24.71
2023-01-27T23:22:56.817Z,24.71
2023-01-27T23:25:26.245Z,24.70
2023-01-27T23:27:55.880Z,24.71
2023-01-27T23:30:25.557Z,24.70
2023-01-27T23:32:56.839Z,24.69
2023-01-27T23:35:28.921Z,24.68
2023-01-27T23:37:58.532Z,24.67
2023-01-27T23:40:27.957Z,24.66
2023-01-27T23:42:57.402Z,24.66
2023-01-27T23:45:27.233Z,24.64
2023-01-27T23:47:56.950Z,24.64
2023-01-27T23:50:26.459Z,24.63
2023-01-27T23:52:55.982Z,24.62
2023-01-27T23:55:25.537Z,24.61
2023-01-27T23:57:55.058Z,24.61
